createdAt,value
2023-01-05T00:01:53.812Z,99978.56
2023-01-05T00:04:22.490Z,99977.15
2023-01-05T00:06:50.676Z,99977.42
2023-01-05T00:09:19.742Z,99973.09
2023-01-05T00:12:06.174Z,99971.97
2023-01-05T00:14:53.568Z,99966.48
2023-01-05T00:17:42.680Z,99967.92
2023-01-05T00:20:35.398Z,99966.02
2023-01-05T00:23:04.206Z,99961.19
2023-01-05T00:25:36.767Z,99960.63
2023-01-05T00:28:05.084Z,99961.36
2023-01-05T00:30:38.141Z,99962.67
2023-01-05T00:33:08.919Z,99957.88
2023-01-05T00:35:36.903Z,99948.17
2023-01-05T00:38:05.715Z,99952.13
2023-01-05T00:40:35.827Z,99948.84
2023-01-05T00:43:03.975Z,99947.80
2023-01-05T00:45:32.203Z,99942.09
2023-01-05T00:48:00.154Z,99939.75
2023-01-05T00:50:28.406Z,99943.09
2023-01-05T00:52:56.315Z,99931.92
2023-01-05T00:55:24.492Z,99919.69
2023-01-05T00:57:52.712Z,99911.16
2023-01-05T01:00:20.807Z,99916.40
2023-01-05T01:02:52.942Z,99917.15
2023-01-05T01:05:21.422Z,99902.02
2023-01-05T01:07:52.542Z,99913.50
2023-01-05T01:10:20.635Z,99917.05
2023-01-05T01:12:48.508Z,99917.69
2023-01-05T01:15:16.439Z,99918.50
2023-01-05T01:17:44.458Z,99916.94
2023-01-05T01:20:12.471Z,99910.65
2023-01-05T01:22:40.549Z,99910.32
2023-01-05T01:25:09.234Z,99911.54
2023-01-05T01:27:37.425Z,99910.66
2023-01-05T01:30:05.961Z,99910.81
2023-01-05T01:32:33.872Z,99918.55
2023-01-05T01:35:02.564Z,99916.72
2023-01-05T01:37:30.756Z,99919.98
2023-01-05T01:39:59.353Z,99920.94
2023-01-05T01:42:27.723Z,99917.66
2023-01-05T01:45:00.296Z,99912.34
2023-01-05T01:47:54.640Z,99913.73
2023-01-05T01:50:31.342Z,99914.30
2023-01-05T01:53:04.997Z,99919.40
2023-01-05T01:55:34.863Z,99924.70
2023-01-05T01:58:07.282Z,99930.05
2023-01-05T02:00:35.328Z,99938.44
2023-01-05T02:03:05.016Z,99936.54
2023-01-05T02:05:34.715Z,99924.30
2023-01-05T02:08:03.312Z,99924.13
2023-01-05T02:10:57.674Z,99921.02
2023-01-05T02:13:53.568Z,99914.23
2023-01-05T02:17:09.382Z,99920.59
2023-01-05T02:20:11.444Z,99914.58
2023-01-05T02:23:17.024Z,99918.56
2023-01-05T02:26:11.293Z,99917.65
2023-01-05T02:28:53.892Z,99921.70
2023-01-05T02:31:29.122Z,99925.52
2023-01-05T02:34:18.317Z,99923.55
2023-01-05T02:37:19.041Z,99921.84
2023-01-05T02:39:56.501Z,99920.64
2023-01-05T02:42:27.400Z,99926.72
2023-01-05T02:44:55.687Z,99921.39
2023-01-05T02:47:27.899Z,99917.26
2023-01-05T02:50:01.484Z,99914.02
2023-01-05T02:52:39.773Z,99911.94
2023-01-05T02:55:13.785Z,99912.36
2023-01-05T02:57:52.054Z,99907.03
2023-01-05T03:00:29.015Z,99913.90
2023-01-05T03:03:03.634Z,99915.16
2023-01-05T03:05:41.629Z,99921.25
2023-01-05T03:08:25.059Z,99916.17
2023-01-05T03:11:19.478Z,99912.05
2023-01-05T03:13:55.581Z,99914.16
2023-01-05T03:16:30.764Z,99920.79
2023-01-05T03:19:21.750Z,99919.57
2023-01-05T03:22:11.303Z,99916.20
2023-01-05T03:25:03.174Z,99909.16
2023-01-05T03:27:51.409Z,99909.89
2023-01-05T03:30:41.215Z,99905.12
2023-01-05T03:33:44.246Z,99904.61
2023-01-05T03:36:16.413Z,99903.11
2023-01-05T03:38:47.626Z,99900.45
2023-01-05T03:41:18.731Z,99897.20
2023-01-05T03:43:48.532Z,99895.11
2023-01-05T03:46:20.852Z,99896.67
2023-01-05T03:48:49.674Z,99893.21
2023-01-05T03:51:19.507Z,99892.27
2023-01-05T03:53:47.721Z,99893.52
2023-01-05T03:56:15.623Z,99891.38
2023-01-05T03:58:43.809Z,99883.41
2023-01-05T04:01:11.860Z,99891.77
2023-01-05T04:03:40.834Z,99891.42
2023-01-05T04:06:09.019Z,99891.48
2023-01-05T04:08:37.987Z,99890.25
2023-01-05T04:11:20.331Z,99886.88
2023-01-05T04:13:55.137Z,99887.40
2023-01-05T04:16:24.192Z,99892.40
2023-01-05T04:18:52.584Z,99889.21
2023-01-05T04:21:21.397Z,99888.55
2023-01-05T04:23:50.213Z,99887.67
2023-01-05T04:26:18.427Z,99888.40
2023-01-05T04:28:49.631Z,99889.02
2023-01-05T04:31:18.933Z,99891.65
2023-01-05T04:33:47.014Z,99892.48
2023-01-05T04:36:19.178Z,99889.82
2023-01-05T04:38:47.549Z,99896.91
2023-01-05T04:41:15.463Z,99900.71
2023-01-05T04:43:46.786Z,99899.70
2023-01-05T04:46:15.483Z,99894.91
2023-01-05T04:48:45.267Z,99902.02
2023-01-05T04:51:13.732Z,99898.91
2023-01-05T04:53:41.638Z,99900.25
2023-01-05T04:56:12.641Z,99904.10
2023-01-05T04:58:42.827Z,99905.34
2023-01-05T05:01:10.935Z,99900.19
2023-01-05T05:03:39.636Z,99908.62
2023-01-05T05:06:10.141Z,99903.25
2023-01-05T05:08:38.219Z,99897.77
2023-01-05T05:11:06.811Z,99898.15
2023-01-05T05:13:36.753Z,99903.93
2023-01-05T05:16:05.188Z,99905.25
2023-01-05T05:18:34.107Z,99908.63
2023-01-05T05:21:02.367Z,99912.21
2023-01-05T05:23:33.107Z,99914.17
2023-01-05T05:26:01.107Z,99910.41
2023-01-05T05:28:29.270Z,99904.25
2023-01-05T05:30:57.589Z,99901.18
2023-01-05T05:33:26.060Z,99911.99
2023-01-05T05:35:54.320Z,99917.94
2023-01-05T05:38:23.293Z,99920.16
2023-01-05T05:40:51.454Z,99916.55
2023-01-05T05:43:19.552Z,99930.08
2023-01-05T05:45:50.686Z,99921.39
2023-01-05T05:48:20.116Z,99927.05
2023-01-05T05:50:48.402Z,99928.02
2023-01-05T05:53:16.721Z,99932.98
2023-01-05T05:55:49.257Z,99935.34
2023-01-05T05:58:18.384Z,99941.59
2023-01-05T06:00:47.599Z,99934.74
2023-01-05T06:03:15.831Z,99932.60
2023-01-05T06:05:44.622Z,99938.84
2023-01-05T06:08:12.857Z,99944.66
2023-01-05T06:10:40.928Z,99939.30
2023-01-05T06:13:09.240Z,99937.95
2023-01-05T06:15:37.423Z,99945.55
2023-01-05T06:18:05.776Z,99948.16
2023-01-05T06:20:34.311Z,99955.16
2023-01-05T06:23:02.605Z,99961.30
2023-01-05T06:25:31.215Z,99963.46
2023-01-05T06:27:59.460Z,99955.48
2023-01-05T06:30:29.312Z,99959.48
2023-01-05T06:32:57.290Z,99962.60
2023-01-05T06:35:26.023Z,99962.61
2023-01-05T06:37:54.725Z,99956.23
2023-01-05T06:40:23.588Z,99956.63
2023-01-05T06:42:53.312Z,99957.75
2023-01-05T06:45:21.460Z,99952.22
2023-01-05T06:47:49.665Z,99955.61
2023-01-05T06:50:20.169Z,99956.69
2023-01-05T06:52:48.353Z,99958.77
2023-01-05T06:55:16.656Z,99963.30
2023-01-05T06:57:44.854Z,99954.95
2023-01-05T07:00:13.722Z,99960.65
2023-01-05T07:02:42.068Z,99962.55
2023-01-05T07:05:11.534Z,99965.70
2023-01-05T07:07:40.193Z,99966.92
2023-01-05T07:10:09.233Z,99964.58
2023-01-05T07:12:37.408Z,99967.14
2023-01-05T07:15:06.368Z,99966.56
2023-01-05T07:17:34.535Z,99972.65
2023-01-05T07:20:04.510Z,99979.65
2023-01-05T07:22:32.634Z,99984.80
2023-01-05T07:25:01.203Z,99987.27
2023-01-05T07:27:29.916Z,99989.92
2023-01-05T07:29:58.254Z,99988.48
2023-01-05T07:32:26.832Z,99999.77
2023-01-05T07:34:58.277Z,99999.41
2023-01-05T09:29:26.462Z,100089.21
2023-01-05T09:31:53.335Z,100082.67
2023-01-05T09:34:20.247Z,100079.02
2023-01-05T09:36:47.046Z,100082.68
2023-01-05T09:39:13.844Z,100090.48
2023-01-05T09:41:53.402Z,100090.55
2023-01-05T09:44:37.458Z,100102.49
2023-01-05T09:47:14.996Z,100099.23
2023-01-05T09:49:42.203Z,100097.89
2023-01-05T09:52:10.183Z,100100.23
2023-01-05T09:54:38.618Z,100102.45
2023-01-05T09:57:14.191Z,100102.45
2023-01-05T09:59:45.382Z,100105.17
2023-01-05T10:02:42.173Z,100103.85
2023-01-05T10:05:13.299Z,100102.67
2023-01-05T10:07:45.194Z,100101.14
2023-01-05T10:10:46.131Z,100098.04
2023-01-05T10:13:27.830Z,100107.61
2023-01-05T10:15:54.980Z,100114.63
2023-01-05T10:18:26.001Z,100114.78
2023-01-05T10:21:18.734Z,100121.40
2023-01-05T10:24:00.584Z,100131.61
2023-01-05T10:27:13.982Z,100131.50
2023-01-05T10:29:34.044Z,100131.98
2023-01-05T10:32:22.585Z,100132.05
2023-01-05T10:35:01.997Z,100128.61
2023-01-05T10:37:38.342Z,100132.54
2023-01-05T10:40:14.057Z,100135.17
2023-01-05T10:42:47.619Z,100136.91
2023-01-05T10:45:18.156Z,100140.73
2023-01-05T10:47:46.785Z,100143.56
2023-01-05T10:50:41.982Z,100141.40
2023-01-05T10:53:12.174Z,100139.16
2023-01-05T10:55:56.877Z,100135.87
2023-01-05T10:58:31.557Z,100121.91
2023-01-05T11:01:16.060Z,100125.21
2023-01-05T11:04:25.121Z,100122.82
2023-01-05T11:06:36.880Z,100119.23
2023-01-05T11:09:22.149Z,100115.19
2023-01-05T11:11:55.293Z,100113.48
2023-01-05T11:14:23.337Z,100115.17
2023-01-05T11:16:53.726Z,100116.06
2023-01-05T11:19:24.546Z,100126.08
2023-01-05T11:21:54.079Z,100134.17
2023-01-05T11:24:34.654Z,100138.49
2023-01-05T11:27:27.947Z,100142.56
2023-01-05T11:30:19.622Z,100140.79
2023-01-05T11:32:47.558Z,100135.60
2023-01-05T11:35:30.164Z,100136.42
2023-01-05T11:37:57.964Z,100136.45
2023-01-05T11:40:30.740Z,100124.62
2023-01-05T11:43:12.079Z,100124.84
2023-01-05T11:46:06.462Z,100120.61
2023-01-05T11:48:35.588Z,100126.59
2023-01-05T11:51:02.436Z,100124.04
2023-01-05T11:53:39.839Z,100130.04
2023-01-05T11:56:23.751Z,100129.88
2023-01-05T11:58:58.116Z,100129.30
2023-01-05T12:01:34.459Z,100134.70
2023-01-05T12:04:20.456Z,100140.59
2023-01-05T12:07:01.108Z,100134.95
2023-01-05T12:09:46.314Z,100135.54
2023-01-05T12:12:38.624Z,100136.14
2023-01-05T12:15:10.924Z,100138.06
2023-01-05T12:18:02.139Z,100125.73
2023-01-05T12:20:50.908Z,100138.83
2023-01-05T12:23:29.744Z,100139.15
2023-01-05T12:26:14.826Z,100140.53
2023-01-05T12:35:02.846Z,100147.67
2023-01-05T12:37:51.005Z,100141.80
2023-01-05T12:40:27.673Z,100154.30
2023-01-05T12:43:03.037Z,100156.17
2023-01-05T12:45:41.970Z,100159.84
2023-01-05T12:48:34.310Z,100161.23
2023-01-05T12:51:20.962Z,100164.02
2023-01-05T12:53:57.882Z,100169.20
2023-01-05T12:56:30.935Z,100166.70
2023-01-05T12:59:13.098Z,100171.56
2023-01-05T13:01:50.134Z,100182.98
2023-01-05T13:04:36.374Z,100184.44
2023-01-05T13:07:14.914Z,100188.08
2023-01-05T13:09:46.657Z,100186.85
2023-01-05T13:12:17.415Z,100194.27
2023-01-05T13:15:01.090Z,100201.70
2023-01-05T13:17:38.733Z,100212.47
2023-01-05T13:20:23.821Z,100217.79
2023-01-05T13:22:59.239Z,100221.79
2023-01-05T13:25:32.318Z,100237.20
2023-01-05T13:27:59.406Z,100235.63
2023-01-05T13:30:33.201Z,100246.33
2023-01-05T13:33:18.218Z,100257.91
2023-01-05T13:36:06.472Z,100251.11
2023-01-05T13:38:45.431Z,100258.26
2023-01-05T13:41:37.509Z,100260.51
2023-01-05T13:44:26.120Z,100267.73
2023-01-05T13:47:27.895Z,100269.25
2023-01-05T13:50:14.196Z,100276.18
2023-01-05T13:53:00.951Z,100284.98
2023-01-05T13:55:29.911Z,100289.01
2023-01-05T13:57:57.844Z,100292.30
2023-01-05T14:00:29.497Z,100298.91
2023-01-05T14:03:01.875Z,100304.94
2023-01-05T14:05:40.371Z,100317.92
2023-01-05T14:08:46.394Z,100331.46
2023-01-05T14:11:15.004Z,100331.62
2023-01-05T14:13:49.995Z,100348.68
2023-01-05T14:16:35.349Z,100363.18
2023-01-05T14:19:45.638Z,100386.05
2023-01-05T14:22:18.299Z,100389.47
2023-01-05T14:24:48.365Z,100391.04
2023-01-05T14:27:18.055Z,100408.04
2023-01-05T14:29:47.496Z,100420.50
2023-01-05T14:32:36.091Z,100427.44
2023-01-05T14:35:18.171Z,100427.92
2023-01-05T14:38:00.590Z,100440.69
2023-01-05T14:40:33.617Z,100447.64
2023-01-05T14:43:05.415Z,100460.73
2023-01-05T14:45:36.523Z,100457.23
2023-01-05T14:48:08.350Z,100471.35
2023-01-05T14:50:40.970Z,100492.42
2023-01-05T14:53:34.031Z,100512.48
2023-01-05T14:56:03.929Z,100519.66
2023-01-05T14:58:37.809Z,100530.73
2023-01-05T15:01:17.519Z,100534.75
2023-01-05T15:03:53.508Z,100545.09
2023-01-05T15:06:29.601Z,100553.29
2023-01-05T15:09:28.047Z,100556.41
2023-01-05T15:12:21.972Z,100568.10
2023-01-05T15:15:04.633Z,100579.56
2023-01-05T15:18:09.479Z,100576.70
2023-01-05T15:21:06.415Z,100578.58
2023-01-05T15:23:49.945Z,100581.90
2023-01-05T15:26:36.454Z,100599.91
2023-01-05T15:29:09.735Z,100609.61
2023-01-05T15:31:48.690Z,100624.25
2023-01-05T15:34:51.738Z,100631.92
2023-01-05T15:37:51.402Z,100639.79
2023-01-05T15:40:21.940Z,100654.80
2023-01-05T15:42:55.868Z,100653.73
2023-01-05T15:45:35.672Z,100655.43
2023-01-05T15:48:15.310Z,100660.30
2023-01-05T15:50:51.689Z,100671.66
2023-01-05T15:54:14.218Z,100674.59
2023-01-05T15:56:41.373Z,100682.28
2023-01-05T15:59:38.264Z,100690.59
2023-01-05T16:02:26.762Z,100695.01
2023-01-05T16:05:28.175Z,100695.01
2023-01-05T16:07:57.887Z,100698.14
2023-01-05T16:10:36.867Z,100699.73
2023-01-05T16:13:17.116Z,100709.06
2023-01-05T16:15:55.730Z,100724.27
2023-01-05T16:18:37.619Z,100725.30
2023-01-05T16:21:35.225Z,100737.91
2023-01-05T16:24:26.952Z,100740.55
2023-01-05T16:26:58.180Z,100738.50
2023-01-05T16:29:32.805Z,100737.88
2023-01-05T16:32:01.325Z,100744.06
2023-01-05T16:34:31.443Z,100748.37
2023-01-05T16:37:21.030Z,100747.54
2023-01-05T16:40:00.345Z,100764.88
2023-01-05T16:42:41.233Z,100769.58
2023-01-05T16:45:32.233Z,100772.40
2023-01-05T16:48:38.614Z,100777.52
2023-01-05T16:51:12.418Z,100781.69
2023-01-05T16:53:53.035Z,100792.98
2023-01-05T16:56:37.542Z,100797.58
2023-01-05T16:59:32.551Z,100801.90
2023-01-05T17:02:01.100Z,100800.87
2023-01-05T17:04:28.995Z,100805.20
2023-01-05T17:06:57.440Z,100806.55
2023-01-05T17:09:30.499Z,100815.27
2023-01-05T17:11:57.752Z,100817.74
2023-01-05T17:14:27.387Z,100827.36
2023-01-05T17:16:54.937Z,100823.55
2023-01-05T17:19:22.751Z,100837.45
2023-01-05T17:21:54.778Z,100829.95
2023-01-05T17:24:22.993Z,100838.02
2023-01-05T17:26:50.029Z,100844.96
2023-01-05T17:29:26.408Z,100850.71
2023-01-05T17:31:54.920Z,100848.11
2023-01-05T17:34:23.030Z,100850.42
2023-01-05T17:36:55.121Z,100858.20
2023-01-05T17:39:23.792Z,100865.46
2023-01-05T17:41:52.140Z,100868.59
2023-01-05T17:44:20.211Z,100877.48
2023-01-05T17:46:48.284Z,100884.25
2023-01-05T17:49:19.281Z,100893.22
2023-01-05T17:51:47.007Z,100904.43
2023-01-05T17:54:14.570Z,100897.58
2023-01-05T17:56:42.024Z,100907.66
2023-01-05T17:59:09.660Z,100907.86
2023-01-05T18:01:37.076Z,100909.40
2023-01-05T18:04:05.983Z,100914.34
2023-01-05T18:06:33.839Z,100925.01
2023-01-05T18:09:01.024Z,100933.65
2023-01-05T18:11:28.347Z,100938.23
2023-01-05T18:13:55.026Z,100938.90
2023-01-05T18:16:21.949Z,100945.50
2023-01-05T18:18:49.056Z,100943.52
2023-01-05T18:21:16.343Z,100941.39
2023-01-05T18:23:44.003Z,100949.80
2023-01-05T18:26:11.520Z,100946.88
2023-01-05T18:28:39.166Z,100955.20
2023-01-05T18:31:15.588Z,100952.48
2023-01-05T18:33:43.186Z,100953.68
2023-01-05T18:36:13.051Z,100957.77
2023-01-05T18:38:41.855Z,100967.89
2023-01-05T18:41:11.595Z,100978.12
2023-01-05T18:43:39.251Z,100975.77
2023-01-05T18:46:30.690Z,100981.09
2023-01-05T18:49:02.256Z,100986.86
2023-01-05T18:51:30.212Z,100989.84
2023-01-05T18:54:00.198Z,100994.11
2023-01-05T18:56:28.363Z,100995.60
2023-01-05T18:58:59.350Z,101003.27
2023-01-05T19:01:27.509Z,101008.82
2023-01-05T19:03:58.753Z,101017.21
2023-01-05T19:06:31.854Z,101016.16
2023-01-05T19:09:04.757Z,101026.31
2023-01-05T19:11:33.230Z,101028.35
2023-01-05T19:14:03.518Z,101035.27
2023-01-05T19:16:36.400Z,101038.18
2023-01-05T19:19:09.409Z,101045.70
2023-01-05T19:21:40.948Z,101042.31
2023-01-05T19:24:29.958Z,101052.13
2023-01-05T19:27:04.595Z,101060.92
2023-01-05T19:29:33.470Z,101062.71
2023-01-05T19:32:02.583Z,101059.71
2023-01-05T19:34:34.077Z,101063.33
2023-01-05T19:37:08.818Z,101064.21
2023-01-05T19:39:38.094Z,101064.33
2023-01-05T19:42:10.407Z,101068.09
2023-01-05T19:44:47.946Z,101081.89
2023-01-05T19:47:16.823Z,101082.31
2023-01-05T19:49:47.242Z,101086.11
2023-01-05T19:52:23.498Z,101089.45
2023-01-05T19:54:52.119Z,101094.02
2023-01-05T19:57:21.675Z,101108.48
2023-01-05T19:59:55.894Z,101111.54
2023-01-05T20:02:26.428Z,101118.16
2023-01-05T20:04:55.190Z,101121.10
2023-01-05T20:07:24.579Z,101132.14
2023-01-05T20:09:53.171Z,101135.58
2023-01-05T20:12:20.789Z,101141.44
2023-01-05T20:14:49.026Z,101144.45
2023-01-05T20:17:18.540Z,101149.41
2023-01-05T20:19:48.167Z,101146.21
2023-01-05T20:22:16.343Z,101150.67
2023-01-05T20:24:44.692Z,101154.14
2023-01-05T20:27:15.374Z,101155.47
2023-01-05T20:29:43.591Z,101157.86
2023-01-05T20:32:26.975Z,101161.19
2023-01-05T20:34:59.508Z,101170.09
2023-01-05T20:37:32.885Z,101174.14
2023-01-05T20:40:02.334Z,101173.55
2023-01-05T20:42:30.763Z,101178.55
2023-01-05T20:45:02.123Z,101180.10
2023-01-05T20:47:46.448Z,101187.23
2023-01-05T20:50:17.305Z,101189.48
2023-01-05T20:52:45.119Z,101196.45
2023-01-05T20:55:15.523Z,101206.48
2023-01-05T20:57:48.885Z,101209.50
2023-01-05T21:00:19.613Z,101216.04
2023-01-05T21:02:49.240Z,101217.52
2023-01-05T21:05:18.814Z,101221.52
2023-01-05T21:07:47.587Z,101228.48
2023-01-05T21:10:16.416Z,101236.59
2023-01-05T21:12:47.981Z,101246.23
2023-01-05T21:15:15.580Z,101240.51
2023-01-05T21:17:47.785Z,101237.75
2023-01-05T21:20:19.893Z,101241.46
2023-01-05T21:22:48.168Z,101245.16
2023-01-05T21:25:16.088Z,101247.26
2023-01-05T21:27:46.038Z,101255.70
2023-01-05T21:30:15.918Z,101258.73
2023-01-05T21:32:43.314Z,101264.67
2023-01-05T21:35:11.105Z,101267.20
2023-01-05T21:37:39.095Z,101274.53
2023-01-05T21:40:06.913Z,101284.44
2023-01-05T21:42:39.301Z,101290.36
2023-01-05T21:45:09.657Z,101288.98
2023-01-05T21:47:37.644Z,101292.59
2023-01-05T21:50:36.760Z,101294.74
2023-01-05T21:53:24.065Z,101297.56
2023-01-05T21:56:10.209Z,101291.02
2023-01-05T21:58:37.202Z,101299.39
2023-01-05T22:01:05.148Z,101296.45
2023-01-05T22:03:32.228Z,101304.96
2023-01-05T22:06:01.589Z,101302.17
2023-01-05T22:08:30.918Z,101302.36
2023-01-05T22:11:00.102Z,101303.59
2023-01-05T22:13:28.669Z,101303.58
2023-01-05T22:15:56.035Z,101309.89
2023-01-05T22:18:24.207Z,101316.13
2023-01-05T22:20:56.318Z,101320.40
2023-01-05T22:23:23.727Z,101318.39
2023-01-05T22:26:02.487Z,101325.11
2023-01-05T22:28:30.580Z,101325.91
2023-01-05T22:31:17.630Z,101334.61
2023-01-05T22:33:49.452Z,101336.45
2023-01-05T22:36:18.214Z,101343.01
2023-01-05T22:38:46.597Z,101343.80
2023-01-05T22:41:15.633Z,101349.42
2023-01-05T22:43:42.841Z,101352.37
2023-01-05T22:46:12.823Z,101352.05
2023-01-05T22:48:42.203Z,101354.08
2023-01-05T22:51:14.862Z,101357.62
2023-01-05T22:53:42.449Z,101357.13
2023-01-05T22:56:11.204Z,101363.55
2023-01-05T22:58:39.594Z,101364.31
2023-01-05T23:01:07.794Z,101360.22
2023-01-05T23:03:35.107Z,101364.63
2023-01-05T23:06:02.424Z,101369.42
2023-01-05T23:08:29.927Z,101372.20
2023-01-05T23:11:18.541Z,101377.36
2023-01-05T23:13:45.495Z,101382.30
2023-01-05T23:16:13.751Z,101391.02
2023-01-05T23:18:40.761Z,101398.95
2023-01-05T23:21:09.856Z,101399.31
2023-01-05T23:23:37.459Z,101401.96
2023-01-05T23:26:06.479Z,101404.97
2023-01-05T23:28:33.327Z,101409.39
2023-01-05T23:31:01.183Z,101409.45
2023-01-05T23:33:30.968Z,101414.14
2023-01-05T23:35:57.554Z,101413.29
2023-01-05T23:38:25.510Z,101415.21
2023-01-05T23:40:53.992Z,101416.81
2023-01-05T23:43:23.869Z,101417.95
2023-01-05T23:45:51.704Z,101421.02
2023-01-05T23:48:20.874Z,101420.23
2023-01-05T23:50:47.696Z,101425.95
2023-01-05T23:53:15.658Z,101431.23
2023-01-05T23:55:42.513Z,101431.77
2023-01-05T23:58:09.415Z,101433.93
